Foveran, United Kingdom
Current Conditions -  °F | °C
As of 3:20 PM on Thursday 23 Oct 2014 (Local Time) from EGPD Reporting Station
Few Clouds Few Clouds  
Wind Chill: 57°   Ceiling: Unl
Heat Index: 57°   Visibility: 6mi
Dew Point: 52°   Wind: 18mph
Humidity: 82%   Direction: 210°SSW
Pressure: 29.65"   Gusts: NA
Location:  57.31°N, 2.04°W
Report Text: EGPD 231420Z 21016KT 9999 FEW021 14/11 Q1004 NOSIG
Loading
Personal Weather Stations






























Interactive Weather Map New forecast layout! Learn more

10-Day Weather Forecast

Advertisements
Track Severe Weather on mobile